Aviation Digital Data Service (ADDS)

Output produced by METARs form (1322 UTC 21 August 2019)
found at http://www.aviationweather.gov/metar/data/
 
Forecast for: HESH (SHARM EL SHEIKHI, EG)
Text: TAF HESH 211100Z 2112/2218 02015KT CAVOK
Forecast period: 1200 UTC 21 August 2019 to 1800 UTC 22 August 2019
Forecast type: FROM: standard forecast or significant change
Winds: from the NNE (20 degrees) at 17 MPH (15 knots; 7.7 m/s)
Visibility: 6 or more miles 10+ km)
Ceiling: unknown
Clouds: missing
Weather: NSW  (no significant weather)